Time;durP1;ratioP1;P1;durP2;ratioP2;P2;SDS_P1;SDS_P2;PMS_P1;PMS_P2;Temp;Humidity;BMP_temperature;BMP_pressure;BME280_temperature;BME280_humidity;BME280_pressure;Samples;Min_cycle;Max_cycle;Signal;HPM_P1;HPM_P2
2023/03/22 00:00:54;;;;;;;6.07;4.07;;;14.20;62.60;;;;;;6274462;22;20911;-73
2023/03/22 00:03:21;;;;;;;5.77;4.30;;;14.20;62.70;;;;;;6273879;22;20411;-73
2023/03/22 00:05:48;;;;;;;4.90;4.17;;;14.20;62.70;;;;;;6274357;22;20456;-72
2023/03/22 00:08:15;;;;;;;6.90;4.00;;;14.20;62.90;;;;;;6273854;22;20411;-74
2023/03/22 00:10:42;;;;;;;5.27;4.27;;;14.20;63.00;;;;;;6274617;22;20480;-73
2023/03/22 00:13:11;;;;;;;7.37;4.70;;;14.20;63.00;;;;;;6274206;22;20430;-74
2023/03/22 00:15:58;;;;;;;6.40;4.87;;;14.10;62.90;;;;;;6274020;22;20502;-73
2023/03/22 00:18:25;;;;;;;6.60;4.87;;;14.00;63.30;;;;;;6273704;22;20729;-73
2023/03/22 00:20:54;;;;;;;6.57;3.90;;;14.00;63.30;;;;;;6274413;22;20494;-73
2023/03/22 00:23:21;;;;;;;8.23;4.67;;;14.00;63.50;;;;;;6273912;22;20747;-72
2023/03/22 00:25:48;;;;;;;8.13;4.60;;;14.00;63.50;;;;;;6274777;22;20793;-74
2023/03/22 00:28:17;;;;;;;6.20;4.53;;;14.00;63.60;;;;;;6274383;22;20513;-73
2023/03/22 00:30:52;;;;;;;4.93;4.03;;;14.00;63.70;;;;;;6275053;22;20414;-74
2023/03/22 00:33:19;;;;;;;7.03;4.47;;;14.00;63.60;;;;;;6273903;22;20391;-73
2023/03/22 00:35:50;;;;;;;5.03;4.40;;;14.00;63.60;;;;;;6274409;22;20451;-73
2023/03/22 00:38:18;;;;;;;4.57;3.87;;;14.00;63.70;;;;;;6274750;22;20392;-73
2023/03/22 00:40:45;;;;;;;4.43;4.03;;;14.00;63.70;;;;;;6274498;22;20407;-73
2023/03/22 00:43:12;;;;;;;5.10;4.60;;;14.00;63.70;;;;;;6274140;22;20778;-73
2023/03/22 00:45:40;;;;;;;4.93;4.13;;;14.00;63.60;;;;;;6274762;22;20720;-74
2023/03/22 00:48:08;;;;;;;4.57;4.10;;;14.00;63.60;;;;;;6273547;22;20418;-74
2023/03/22 00:50:35;;;;;;;5.17;4.30;;;14.00;63.70;;;;;;6274132;22;20434;-74
2023/03/22 00:53:05;;;;;;;5.17;4.00;;;13.90;64.00;;;;;;6273612;22;20409;-74
2023/03/22 00:55:33;;;;;;;6.37;4.10;;;13.90;64.10;;;;;;6274334;22;20462;-74
2023/03/22 00:58:00;;;;;;;5.43;4.33;;;13.80;64.10;;;;;;6274401;22;20431;-74
2023/03/22 01:00:27;;;;;;;6.00;4.30;;;13.80;64.20;;;;;;6274201;22;20503;-74
2023/03/22 01:02:58;;;;;;;4.43;4.03;;;13.80;64.20;;;;;;6274402;22;21041;-74
2023/03/22 01:05:27;;;;;;;4.90;4.20;;;13.80;64.10;;;;;;6249685;22;20443;-74
2023/03/22 01:07:54;;;;;;;4.57;4.17;;;13.80;64.10;;;;;;6275974;22;20464;-74
2023/03/22 01:10:21;;;;;;;5.67;4.63;;;13.80;64.20;;;;;;6276341;22;20434;-74
2023/03/22 01:12:48;;;;;;;5.60;3.90;;;13.70;64.20;;;;;;6275835;22;20510;-73
2023/03/22 01:15:15;;;;;;;5.07;3.93;;;13.70;64.20;;;;;;6248856;22;20407;-73
2023/03/22 01:17:42;;;;;;;5.77;4.10;;;13.70;64.30;;;;;;6275962;22;20407;-73
2023/03/22 01:20:12;;;;;;;6.13;4.57;;;13.70;64.20;;;;;;6276503;22;20434;-73
2023/03/22 01:22:39;;;;;;;6.47;4.53;;;13.70;64.30;;;;;;6276374;22;20411;-73
2023/03/22 01:25:06;;;;;;;6.20;4.60;;;13.70;64.30;;;;;;6276666;22;20490;-73
2023/03/22 01:27:33;;;;;;;5.77;4.07;;;13.60;64.20;;;;;;6276232;22;20422;-73
2023/03/22 01:30:00;;;;;;;6.07;4.70;;;13.60;64.10;;;;;;6275587;22;20419;-73
2023/03/22 01:32:27;;;;;;;5.87;4.70;;;13.60;64.20;;;;;;6276148;22;20407;-74
2023/03/22 01:34:54;;;;;;;6.97;4.67;;;13.50;64.50;;;;;;6276767;22;20411;-73
2023/03/22 01:37:24;;;;;;;6.40;4.13;;;13.50;64.60;;;;;;6276016;22;20446;-74
2023/03/22 01:39:51;;;;;;;5.20;4.40;;;13.40;64.70;;;;;;6276249;22;20934;-74
2023/03/22 01:42:19;;;;;;;6.60;4.47;;;13.40;64.80;;;;;;6276175;22;20410;-74
2023/03/22 01:45:19;;;;;;;6.47;4.23;;;13.40;65.00;;;;;;6275206;22;20407;-74
2023/03/22 01:47:51;;;;;;;5.33;4.00;;;13.30;65.20;;;;;;6275865;22;20899;-73
2023/03/22 01:50:18;;;;;;;6.13;4.20;;;13.30;64.90;;;;;;6276184;22;20537;-73
2023/03/22 01:52:48;;;;;;;5.73;4.07;;;13.30;64.90;;;;;;6275838;22;20952;-74
2023/03/22 01:55:17;;;;;;;5.20;4.50;;;13.20;65.00;;;;;;6276007;22;20403;-74
2023/03/22 01:57:45;;;;;;;4.40;3.80;;;13.20;65.00;;;;;;6275717;22;20492;-74
2023/03/22 02:00:14;;;;;;;4.80;4.00;;;13.20;65.10;;;;;;6274099;22;20475;-74
2023/03/22 02:02:42;;;;;;;5.23;4.50;;;13.10;65.10;;;;;;6274886;22;20490;-74
2023/03/22 02:05:11;;;;;;;4.20;3.80;;;13.10;65.90;;;;;;6275464;22;20667;-72
2023/03/22 02:07:39;;;;;;;7.33;4.90;;;13.10;65.30;;;;;;6275139;22;20987;-73
2023/03/22 02:10:12;;;;;;;4.63;4.23;;;13.10;65.40;;;;;;6275425;22;20411;-73
2023/03/22 02:12:49;;;;;;;5.10;4.60;;;13.00;65.60;;;;;;6274995;22;20392;-73
2023/03/22 02:15:23;;;;;;;4.63;3.70;;;13.00;65.50;;;;;;6275402;22;20719;-73
2023/03/22 02:18:00;;;;;;;3.97;3.53;;;13.00;65.50;;;;;;6275487;22;20508;-73
2023/03/22 02:20:54;;;;;;;4.50;3.97;;;13.00;65.60;;;;;;6276292;22;20700;-72
2023/03/22 02:23:43;;;;;;;5.83;3.97;;;12.90;65.70;;;;;;6283006;22;20899;-73
2023/03/22 02:26:34;;;;;;;4.50;4.03;;;12.90;65.70;;;;;;6280090;22;20383;-74
2023/03/22 02:29:07;;;;;;;4.60;4.03;;;12.90;65.70;;;;;;6274654;22;20391;-73
2023/03/22 02:31:58;;;;;;;4.57;4.03;;;12.90;65.80;;;;;;6222609;22;20403;-73
2023/03/22 02:34:40;;;;;;;6.73;4.10;;;12.90;65.80;;;;;;6275177;22;20394;-73
2023/03/22 02:37:32;;;;;;;8.10;3.97;;;12.90;65.70;;;;;;6274594;22;20509;-74
2023/03/22 02:40:06;;;;;;;4.47;4.00;;;12.90;66.00;;;;;;6274950;22;20392;-73
2023/03/22 02:42:44;;;;;;;4.53;4.13;;;12.90;66.10;;;;;;6274182;22;20422;-73
2023/03/22 02:45:16;;;;;;;4.43;3.73;;;12.90;66.10;;;;;;6274725;22;20463;-73
2023/03/22 02:47:50;;;;;;;4.27;3.87;;;12.90;66.00;;;;;;6274812;22;20415;-73
2023/03/22 02:50:24;;;;;;;4.63;3.93;;;12.90;65.90;;;;;;6275073;22;20457;-73
2023/03/22 02:52:56;;;;;;;4.00;3.60;;;12.90;66.00;;;;;;6274804;22;20472;-73
2023/03/22 02:55:29;;;;;;;5.83;3.80;;;12.90;66.10;;;;;;6275076;22;20760;-73
2023/03/22 02:57:58;;;;;;;5.27;3.87;;;12.90;66.20;;;;;;6273945;22;20450;-73
2023/03/22 03:00:26;;;;;;;4.27;3.87;;;13.00;66.40;;;;;;6274735;22;20507;-73
2023/03/22 03:02:58;;;;;;;4.87;3.90;;;12.90;66.30;;;;;;6274988;22;20403;-73
2023/03/22 03:05:30;;;;;;;4.87;4.20;;;13.00;66.40;;;;;;6274516;22;20465;-73
2023/03/22 03:08:00;;;;;;;5.57;4.53;;;13.00;66.50;;;;;;6274615;22;20426;-72
2023/03/22 03:10:29;;;;;;;4.47;3.73;;;12.90;66.50;;;;;;6274446;22;20891;-72
2023/03/22 03:12:57;;;;;;;5.63;4.20;;;13.00;66.60;;;;;;6273932;22;20435;-72
2023/03/22 03:15:25;;;;;;;6.47;4.00;;;13.00;67.60;;;;;;6274367;22;20407;-72
2023/03/22 03:18:10;;;;;;;4.47;3.73;;;13.00;66.70;;;;;;6274372;22;20438;-73
2023/03/22 03:20:51;;;;;;;4.53;3.93;;;13.00;66.90;;;;;;6274808;22;20431;-73
2023/03/22 03:23:28;;;;;;;5.83;3.80;;;13.00;66.70;;;;;;6274167;22;20391;-73
2023/03/22 03:26:03;;;;;;;3.90;3.50;;;13.00;66.90;;;;;;6274121;22;20478;-73
2023/03/22 03:28:42;;;;;;;3.90;3.47;;;13.10;67.20;;;;;;6274547;22;20466;-73
2023/03/22 03:31:24;;;;;;;6.47;3.40;;;13.10;67.10;;;;;;6274128;22;20470;-73
2023/03/22 03:33:58;;;;;;;4.10;3.40;;;13.10;66.90;;;;;;6274632;22;20395;-73
2023/03/22 03:36:27;;;;;;;4.87;3.80;;;13.10;66.90;;;;;;6274718;22;20770;-73
2023/03/22 03:38:56;;;;;;;5.10;3.73;;;13.20;66.90;;;;;;6248146;22;20445;-72
2023/03/22 03:41:27;;;;;;;4.97;3.70;;;13.10;66.60;;;;;;6273405;22;20730;-72
2023/03/22 03:43:57;;;;;;;3.97;3.43;;;13.10;66.70;;;;;;6274263;22;20417;-72
2023/03/22 03:46:24;;;;;;;4.47;3.80;;;13.10;67.10;;;;;;6274334;22;20774;-72
2023/03/22 03:48:52;;;;;;;5.30;3.73;;;13.10;67.30;;;;;;6274378;22;20541;-72
2023/03/22 03:51:19;;;;;;;4.90;3.90;;;13.00;67.20;;;;;;6274457;22;20397;-72
2023/03/22 03:53:47;;;;;;;4.70;3.43;;;13.00;67.10;;;;;;6274026;22;20403;-73
2023/03/22 03:56:13;;;;;;;3.97;3.40;;;13.00;67.00;;;;;;6273965;22;20435;-72
2023/03/22 03:58:42;;;;;;;5.43;3.80;;;13.00;67.00;;;;;;6273569;22;20407;-74
2023/03/22 04:01:09;;;;;;;4.10;3.57;;;13.00;67.00;;;;;;6273905;22;20996;-72
2023/03/22 04:03:37;;;;;;;3.93;3.60;;;13.00;66.90;;;;;;6274364;22;20823;-73
2023/03/22 04:06:05;;;;;;;3.53;3.23;;;13.00;66.70;;;;;;6274418;22;20469;-73
2023/03/22 04:08:32;;;;;;;4.60;4.10;;;13.00;66.50;;;;;;6273752;22;20498;-72
2023/03/22 04:10:58;;;;;;;3.77;3.47;;;13.00;66.40;;;;;;6273936;22;20506;-73
2023/03/22 04:13:25;;;;;;;7.43;3.80;;;13.00;66.30;;;;;;6273934;22;20497;-72
2023/03/22 04:15:56;;;;;;;3.90;3.50;;;12.90;66.10;;;;;;6274072;22;20895;-73
2023/03/22 04:18:29;;;;;;;3.53;3.23;;;12.90;66.90;;;;;;6274294;22;20455;-72
2023/03/22 04:21:02;;;;;;;5.17;3.43;;;12.90;66.20;;;;;;6195196;22;20697;-72
2023/03/22 04:23:32;;;;;;;4.60;3.60;;;12.90;66.50;;;;;;6274156;22;20474;-73
2023/03/22 04:25:59;;;;;;;4.20;3.10;;;12.80;66.30;;;;;;6272642;22;20463;-72
2023/03/22 04:28:26;;;;;;;4.37;3.53;;;12.80;66.50;;;;;;6274204;22;20425;-73
2023/03/22 04:30:56;;;;;;;4.07;3.50;;;12.80;66.40;;;;;;6274573;22;20403;-73
2023/03/22 04:33:23;;;;;;;5.70;3.40;;;12.70;67.50;;;;;;6273886;22;20431;-73
2023/03/22 04:35:55;;;;;;;4.33;3.27;;;12.70;66.90;;;;;;6274376;22;20417;-72
2023/03/22 04:38:24;;;;;;;3.57;3.27;;;12.60;66.90;;;;;;6273708;22;20427;-74
2023/03/22 04:40:51;;;;;;;4.50;3.50;;;12.60;67.00;;;;;;6275929;22;20518;-72
2023/03/22 04:43:18;;;;;;;6.00;3.30;;;12.60;67.10;;;;;;6276163;22;20406;-72
2023/03/22 04:45:46;;;;;;;4.87;3.87;;;12.50;67.20;;;;;;6276420;22;20402;-73
2023/03/22 04:48:14;;;;;;;4.43;3.47;;;12.50;67.30;;;;;;6275795;22;20879;-72
2023/03/22 04:50:41;;;;;;;7.03;4.10;;;12.50;67.70;;;;;;6275910;22;20413;-72
2023/03/22 04:53:08;;;;;;;4.23;3.70;;;12.40;67.80;;;;;;6275023;22;20446;-73
2023/03/22 04:55:35;;;;;;;3.70;3.40;;;12.40;67.90;;;;;;6276031;22;20666;-72
2023/03/22 04:58:02;;;;;;;4.07;3.50;;;12.40;68.00;;;;;;6275785;22;20973;-72
2023/03/22 05:00:29;;;;;;;4.47;3.40;;;12.40;68.00;;;;;;6275806;22;20720;-73
2023/03/22 05:02:57;;;;;;;3.50;3.13;;;12.40;68.00;;;;;;6275723;22;20960;-72
2023/03/22 05:05:28;;;;;;;4.23;3.33;;;12.30;67.90;;;;;;6275989;22;20407;-73
2023/03/22 05:07:58;;;;;;;4.43;3.20;;;12.30;68.00;;;;;;6274970;22;20394;-73
2023/03/22 05:10:25;;;;;;;3.83;3.40;;;12.30;67.90;;;;;;6276168;22;20505;-73
2023/03/22 05:12:55;;;;;;;3.53;3.23;;;12.30;67.60;;;;;;6275593;22;20902;-73
2023/03/22 05:15:25;;;;;;;4.90;3.80;;;12.30;67.50;;;;;;6275409;22;20863;-73
2023/03/22 05:17:54;;;;;;;4.13;3.37;;;12.30;67.20;;;;;;6275673;22;20511;-72
2023/03/22 05:20:25;;;;;;;5.13;3.27;;;12.30;67.30;;;;;;6275724;22;20411;-73
2023/03/22 05:22:55;;;;;;;3.77;3.33;;;12.30;68.00;;;;;;6275338;22;20387;-74
2023/03/22 05:25:22;;;;;;;4.70;3.03;;;12.30;67.50;;;;;;6275909;22;20407;-74
2023/03/22 05:27:53;;;;;;;3.67;3.37;;;12.20;67.60;;;;;;6275942;22;20403;-73
2023/03/22 05:30:20;;;;;;;5.43;3.03;;;12.30;67.80;;;;;;6275894;22;20407;-72
2023/03/22 05:32:49;;;;;;;3.90;3.00;;;12.20;67.70;;;;;;6275538;22;20486;-74
2023/03/22 05:35:19;;;;;;;5.13;3.13;;;12.20;67.80;;;;;;6275184;22;20422;-72
2023/03/22 05:37:47;;;;;;;3.47;3.17;;;12.20;67.80;;;;;;6249029;22;20438;-73
2023/03/22 05:40:17;;;;;;;4.13;3.00;;;12.20;67.80;;;;;;6275601;22;20403;-73
2023/03/22 05:42:44;;;;;;;3.47;3.17;;;12.20;67.50;;;;;;6275337;22;20435;-73
2023/03/22 05:45:11;;;;;;;3.80;3.10;;;12.10;67.60;;;;;;6275413;22;20431;-73
2023/03/22 05:47:38;;;;;;;6.00;3.07;;;12.10;67.50;;;;;;6221518;22;20403;-69
2023/03/22 05:50:07;;;;;;;3.40;3.10;;;12.20;67.30;;;;;;6274580;22;20403;-74
2023/03/22 05:52:34;;;;;;;3.50;3.07;;;12.20;67.40;;;;;;6274127;22;20445;-72
2023/03/22 05:55:06;;;;;;;4.53;3.07;;;12.10;67.20;;;;;;6275326;22;20417;-73
2023/03/22 05:57:33;;;;;;;5.77;3.37;;;12.10;67.10;;;;;;6275870;22;20592;-73
2023/03/22 06:00:03;;;;;;;3.60;3.13;;;12.20;67.40;;;;;;6274923;22;20510;-73
2023/03/22 06:02:32;;;;;;;3.83;3.13;;;12.10;67.50;;;;;;6274924;22;20411;-74
2023/03/22 06:04:59;;;;;;;4.40;3.47;;;12.10;67.30;;;;;;6248830;22;20403;-74
2023/03/22 06:07:28;;;;;;;6.40;3.27;;;12.10;67.30;;;;;;6274846;22;20427;-73
2023/03/22 06:09:58;;;;;;;3.43;2.90;;;12.10;67.30;;;;;;6275508;22;20407;-72
2023/03/22 06:12:29;;;;;;;4.43;3.50;;;12.10;67.30;;;;;;6274513;22;20419;-73
2023/03/22 06:15:01;;;;;;;3.90;3.27;;;12.10;67.30;;;;;;6274986;22;20533;-73
2023/03/22 06:17:28;;;;;;;3.60;3.30;;;12.20;67.60;;;;;;6274816;22;20485;-73
2023/03/22 06:19:57;;;;;;;3.30;3.00;;;12.20;67.50;;;;;;6274915;22;20497;-73
2023/03/22 06:22:29;;;;;;;5.87;3.73;;;12.20;67.80;;;;;;6274756;22;20425;-73
2023/03/22 06:24:56;;;;;;;4.23;3.03;;;12.20;67.80;;;;;;6275101;22;20468;-73
2023/03/22 06:27:22;;;;;;;3.00;2.70;;;12.30;68.20;;;;;;6274781;22;20637;-74
2023/03/22 06:29:53;;;;;;;4.70;3.10;;;12.30;67.90;;;;;;6275530;22;20407;-75
2023/03/22 06:32:22;;;;;;;3.83;2.87;;;12.20;68.30;;;;;;6274846;22;20501;-74
2023/03/22 06:34:49;;;;;;;3.57;2.80;;;12.20;68.40;;;;;;6274592;22;20439;-73
2023/03/22 06:37:16;;;;;;;4.33;2.80;;;12.30;68.50;;;;;;6275747;22;21041;-71
2023/03/22 06:39:42;;;;;;;4.20;2.50;;;12.40;68.70;;;;;;6275335;22;20403;-73
2023/03/22 06:42:12;;;;;;;7.03;2.70;;;12.40;68.80;;;;;;6276018;22;20463;-73
2023/03/22 06:44:43;;;;;;;3.43;2.50;;;12.50;68.50;;;;;;6282408;22;20931;-73
2023/03/22 06:47:13;;;;;;;3.40;2.57;;;12.60;68.60;;;;;;6275904;22;20388;-72
2023/03/22 06:49:40;;;;;;;3.80;2.73;;;12.70;68.60;;;;;;6273183;22;20391;-73
2023/03/22 06:52:10;;;;;;;2.70;2.50;;;12.80;68.50;;;;;;6273710;22;20411;-73
2023/03/22 06:54:39;;;;;;;3.27;2.70;;;12.90;68.40;;;;;;6273601;22;20434;-73
2023/03/22 06:57:09;;;;;;;3.77;2.80;;;12.90;68.20;;;;;;6273181;22;20410;-73
2023/03/22 06:59:38;;;;;;;4.73;2.63;;;13.00;68.30;;;;;;6273430;22;20431;-72
2023/03/22 07:02:05;;;;;;;5.97;3.27;;;13.10;68.50;;;;;;6273245;22;20404;-73
2023/03/22 07:04:36;;;;;;;3.67;2.90;;;13.20;68.30;;;;;;6273623;22;20407;-71
2023/03/22 07:07:06;;;;;;;3.07;2.77;;;13.30;68.20;;;;;;6273347;22;20470;-72
2023/03/22 07:09:36;;;;;;;4.57;3.63;;;13.30;67.60;;;;;;6273578;22;20486;-72
2023/03/22 07:12:05;;;;;;;4.20;3.20;;;13.40;67.80;;;;;;6273146;22;20458;-72
2023/03/22 07:14:33;;;;;;;5.23;3.30;;;13.50;67.30;;;;;;6273950;22;20768;-72
2023/03/22 07:17:02;;;;;;;3.93;3.27;;;13.60;67.20;;;;;;6273031;22;20486;-72
2023/03/22 07:19:33;;;;;;;5.33;3.80;;;13.70;67.10;;;;;;6272523;22;20502;-71
2023/03/22 07:22:03;;;;;;;3.60;3.30;;;13.70;67.00;;;;;;6272609;22;20763;-72
2023/03/22 07:24:30;;;;;;;4.90;3.43;;;13.80;67.00;;;;;;6273916;22;20493;-72
2023/03/22 07:27:01;;;;;;;5.20;3.40;;;13.90;66.90;;;;;;6273228;22;20431;-72
2023/03/22 07:29:31;;;;;;;5.87;3.40;;;14.00;66.60;;;;;;6273432;22;20387;-72
2023/03/22 07:32:01;;;;;;;4.70;3.53;;;14.10;66.40;;;;;;6272404;22;20453;-72
2023/03/22 07:34:35;;;;;;;4.00;3.43;;;14.20;66.10;;;;;;6274063;22;20773;-73
2023/03/22 07:37:07;;;;;;;5.07;3.40;;;14.30;66.00;;;;;;6273847;22;20708;-72
2023/03/22 07:39:36;;;;;;;3.83;3.40;;;14.50;66.20;;;;;;6273311;22;20398;-71
2023/03/22 07:42:10;;;;;;;4.43;3.03;;;14.50;66.10;;;;;;6273848;22;20430;-71
2023/03/22 07:44:39;;;;;;;4.77;2.70;;;14.70;65.60;;;;;;6274122;22;20470;-72
2023/03/22 07:47:06;;;;;;;3.13;2.57;;;14.80;64.90;;;;;;6272683;22;20480;-72
2023/03/22 07:49:38;;;;;;;7.23;2.67;;;14.90;65.00;;;;;;6274288;22;20914;-68
2023/03/22 07:52:08;;;;;;;4.20;2.70;;;15.00;63.90;;;;;;6272809;22;20422;-67
2023/03/22 07:54:37;;;;;;;2.47;2.20;;;15.10;63.90;;;;;;6272505;22;20509;-65
2023/03/22 07:57:07;;;;;;;3.90;2.50;;;15.20;63.80;;;;;;6272786;22;20407;-65
2023/03/22 07:59:37;;;;;;;3.57;2.60;;;15.40;63.50;;;;;;6272646;22;20450;-65
2023/03/22 08:02:07;;;;;;;5.60;2.77;;;15.60;63.10;;;;;;6272653;22;21007;-64
2023/03/22 08:04:36;;;;;;;3.70;2.40;;;15.70;62.40;;;;;;6273766;22;20407;-65
2023/03/22 08:07:08;;;;;;;3.77;2.50;;;15.90;62.60;;;;;;6246260;22;20760;-65
2023/03/22 08:09:38;;;;;;;2.80;2.10;;;16.10;62.80;;;;;;6273448;22;20396;-68
2023/03/22 08:12:08;;;;;;;6.93;2.67;;;16.20;61.60;;;;;;6273186;22;20408;-68
2023/03/22 08:14:38;;;;;;;4.77;2.70;;;16.30;61.70;;;;;;6273993;22;20415;-68
2023/03/22 08:17:06;;;;;;;2.77;2.40;;;16.50;60.80;;;;;;6271816;22;20477;-67
2023/03/22 08:19:33;;;;;;;3.23;2.20;;;16.50;60.00;;;;;;6305892;22;20520;-68
2023/03/22 08:22:00;;;;;;;2.80;2.40;;;16.60;59.60;;;;;;6305394;22;20406;-66
2023/03/22 08:24:28;;;;;;;2.10;1.80;;;16.70;59.60;;;;;;6306700;22;20478;-66
2023/03/22 08:26:56;;;;;;;2.73;2.00;;;16.90;59.60;;;;;;6305375;22;20485;-67
2023/03/22 08:29:23;;;;;;;2.43;2.00;;;16.90;58.50;;;;;;6305858;22;20430;-67
2023/03/22 08:31:50;;;;;;;2.23;2.03;;;17.10;58.40;;;;;;6303114;22;20410;-68
2023/03/22 08:34:17;;;;;;;2.53;1.93;;;17.20;58.30;;;;;;6303759;22;21017;-67
2023/03/22 08:36:45;;;;;;;3.07;1.90;;;17.30;57.80;;;;;;6303550;22;20459;-67
2023/03/22 08:39:12;;;;;;;2.60;1.93;;;17.40;57.70;;;;;;6304419;22;20511;-67
2023/03/22 08:41:40;;;;;;;4.40;1.97;;;17.50;57.10;;;;;;6304564;22;20412;-67
2023/03/22 08:44:07;;;;;;;2.87;2.10;;;17.60;57.40;;;;;;6304394;22;20468;-67
2023/03/22 08:46:34;;;;;;;2.47;2.13;;;17.80;57.30;;;;;;6303507;22;20487;-66
2023/03/22 08:49:02;;;;;;;3.37;1.80;;;17.90;56.70;;;;;;6303701;22;20878;-67
2023/03/22 08:51:30;;;;;;;4.03;2.03;;;18.10;56.60;;;;;;6304327;22;20417;-67
2023/03/22 08:53:59;;;;;;;1.80;1.70;;;18.20;56.30;;;;;;6304389;22;20180;-67
2023/03/22 08:56:27;;;;;;;3.57;1.80;;;18.40;56.20;;;;;;6303885;22;20945;-66
2023/03/22 08:58:56;;;;;;;2.17;1.83;;;18.40;55.40;;;;;;6302882;22;20437;-67
2023/03/22 09:01:24;;;;;;;1.83;1.60;;;18.50;55.30;;;;;;6303933;22;20418;-67
2023/03/22 09:03:51;;;;;;;3.10;1.67;;;18.60;55.40;;;;;;6305219;22;20184;-66
2023/03/22 09:06:18;;;;;;;2.73;1.60;;;18.80;55.20;;;;;;6305299;22;20180;-66
2023/03/22 09:08:45;;;;;;;2.63;1.60;;;18.90;55.60;;;;;;6304552;22;20214;-68
2023/03/22 09:11:13;;;;;;;3.17;1.50;;;18.90;55.10;;;;;;6305040;22;20190;-68
2023/03/22 09:13:40;;;;;;;2.00;1.80;;;19.00;54.90;;;;;;6305195;22;20199;-69
2023/03/22 09:16:09;;;;;;;2.53;1.60;;;19.10;55.00;;;;;;6305122;22;20183;-67
2023/03/22 09:18:36;;;;;;;3.87;1.40;;;19.10;54.10;;;;;;6304678;22;20242;-68
2023/03/22 09:21:04;;;;;;;1.33;1.23;;;19.20;53.40;;;;;;6306896;22;20222;-68
2023/03/22 09:23:31;;;;;;;2.27;1.20;;;19.20;53.80;;;;;;6306039;22;20410;-66
2023/03/22 09:26:00;;;;;;;1.93;1.27;;;19.20;53.80;;;;;;6304760;22;20225;-66
2023/03/22 09:28:27;;;;;;;2.33;1.30;;;19.20;53.50;;;;;;6306866;22;20176;-67
2023/03/22 09:30:54;;;;;;;1.23;1.10;;;19.20;53.00;;;;;;6307881;22;20176;-66
2023/03/22 09:33:23;;;;;;;1.70;1.30;;;19.20;53.60;;;;;;6305355;22;20175;-66
2023/03/22 09:35:50;;;;;;;1.37;1.10;;;19.30;53.80;;;;;;6304626;22;20268;-66
2023/03/22 09:38:16;;;;;;;2.20;1.30;;;19.40;52.90;;;;;;6305336;22;20279;-67
2023/03/22 09:40:50;;;;;;;4.93;1.30;;;19.50;53.00;;;;;;6304920;22;20207;-67
2023/03/22 09:43:19;;;;;;;1.37;1.27;;;19.50;52.50;;;;;;6304115;22;20203;-66
2023/03/22 09:45:49;;;;;;;1.70;1.20;;;19.60;52.60;;;;;;6304586;22;20259;-67
2023/03/22 09:48:20;;;;;;;2.23;1.23;;;19.60;52.30;;;;;;6304712;22;20156;-68
2023/03/22 09:50:51;;;;;;;2.07;1.23;;;19.70;52.50;;;;;;6253093;22;20172;-67
2023/03/22 09:53:18;;;;;;;1.33;1.20;;;19.70;52.10;;;;;;6304571;22;20233;-69
2023/03/22 09:55:51;;;;;;;1.10;1.00;;;19.80;51.90;;;;;;6305099;22;20254;-68
2023/03/22 09:58:25;;;;;;;1.57;1.10;;;19.70;51.30;;;;;;6304250;22;20234;-67
2023/03/22 10:00:57;;;;;;;1.20;1.10;;;19.70;51.00;;;;;;6304632;22;20159;-67
2023/03/22 10:03:50;;;;;;;1.77;1.10;;;19.80;51.20;;;;;;6303950;22;20167;-68
2023/03/22 10:06:21;;;;;;;2.13;1.37;;;19.80;51.30;;;;;;6257049;22;20183;-69
2023/03/22 10:08:57;;;;;;;2.33;1.30;;;19.70;51.50;;;;;;6304459;22;20200;-69
2023/03/22 10:11:35;;;;;;;1.43;1.13;;;19.80;51.80;;;;;;6308548;22;20454;-67
2023/03/22 10:14:13;;;;;;;1.23;1.10;;;19.90;51.70;;;;;;6304135;22;20839;-69
2023/03/22 10:16:40;;;;;;;1.33;1.23;;;20.00;51.00;;;;;;6304300;22;20163;-70
2023/03/22 10:19:16;;;;;;;2.03;1.17;;;20.10;51.50;;;;;;6303603;22;20207;-68
2023/03/22 10:21:46;;;;;;;1.93;1.50;;;20.20;51.10;;;;;;6304878;22;20191;-68
2023/03/22 10:24:17;;;;;;;0.97;0.90;;;20.30;51.00;;;;;;6304182;22;20175;-69
2023/03/22 10:26:47;;;;;;;2.40;1.10;;;20.40;50.60;;;;;;6302772;22;20234;-68
2023/03/22 10:29:21;;;;;;;2.90;1.20;;;20.40;49.70;;;;;;6303915;22;20212;-68
2023/03/22 10:31:48;;;;;;;2.10;1.20;;;20.50;49.30;;;;;;6304582;22;20199;-69
2023/03/22 10:34:21;;;;;;;1.10;1.03;;;20.50;49.50;;;;;;6304060;22;20176;-67
2023/03/22 10:36:52;;;;;;;0.83;0.80;;;20.60;50.00;;;;;;6303476;22;20160;-68
2023/03/22 10:39:28;;;;;;;2.10;1.17;;;20.80;49.90;;;;;;6304134;22;20187;-70
2023/03/22 10:41:57;;;;;;;0.70;0.70;;;20.80;48.90;;;;;;6303983;22;20160;-68
2023/03/22 10:44:26;;;;;;;2.93;2.20;;;20.70;48.80;;;;;;6304133;22;20260;-69
2023/03/22 10:46:55;;;;;;;2.10;0.93;;;20.70;49.10;;;;;;6303943;22;20180;-69
2023/03/22 10:49:27;;;;;;;0.80;0.80;;;20.60;49.10;;;;;;6303445;22;20203;-68
2023/03/22 10:52:00;;;;;;;0.97;0.97;;;20.80;49.60;;;;;;6304482;22;20180;-68
2023/03/22 10:54:27;;;;;;;1.73;1.07;;;21.00;49.10;;;;;;6304920;22;20257;-68
2023/03/22 10:56:54;;;;;;;2.17;1.40;;;21.00;48.90;;;;;;6304080;22;20643;-69
2023/03/22 10:59:47;;;;;;;1.40;1.30;;;21.10;48.80;;;;;;6304641;22;20518;-68
2023/03/22 11:02:22;;;;;;;1.43;1.20;;;21.10;48.60;;;;;;6303809;22;20719;-69
2023/03/22 11:04:52;;;;;;;1.73;1.20;;;21.10;47.80;;;;;;6304405;22;20250;-68
2023/03/22 11:07:33;;;;;;;2.60;1.40;;;21.10;48.20;;;;;;6304201;22;20186;-69
2023/03/22 11:10:22;;;;;;;1.60;1.10;;;21.20;48.30;;;;;;6303973;22;20156;-68
2023/03/22 11:12:52;;;;;;;1.40;1.10;;;21.20;48.20;;;;;;6303916;22;20199;-70
2023/03/22 11:15:29;;;;;;;1.00;0.90;;;21.10;47.80;;;;;;6304054;22;20160;-69
2023/03/22 11:18:02;;;;;;;1.30;1.20;;;21.10;47.50;;;;;;6303774;22;20215;-68
2023/03/22 11:20:29;;;;;;;1.60;1.30;;;21.00;47.20;;;;;;6303687;22;20238;-68
2023/03/22 11:23:02;;;;;;;1.33;1.20;;;21.00;47.80;;;;;;6303834;22;20211;-68
2023/03/22 11:25:31;;;;;;;1.83;1.03;;;20.90;48.30;;;;;;6303694;22;20683;-69
2023/03/22 11:28:08;;;;;;;1.73;1.00;;;21.10;48.60;;;;;;6303453;22;20211;-68
2023/03/22 11:30:36;;;;;;;1.20;1.10;;;21.40;48.50;;;;;;6303954;22;20156;-68
2023/03/22 11:33:16;;;;;;;1.20;1.10;;;21.60;48.30;;;;;;6303552;22;20218;-68
2023/03/22 11:35:46;;;;;;;1.10;1.00;;;21.70;47.70;;;;;;6304252;22;20160;-68
2023/03/22 11:38:28;;;;;;;1.20;1.10;;;21.90;47.00;;;;;;6304067;22;20180;-69
2023/03/22 11:41:01;;;;;;;1.63;1.20;;;21.90;46.10;;;;;;6303833;22;20192;-68
2023/03/22 11:43:34;;;;;;;1.67;1.27;;;22.00;46.40;;;;;;6303087;22;20636;-69
2023/03/22 11:46:01;;;;;;;1.47;1.07;;;22.10;45.80;;;;;;6303642;22;20161;-68
2023/03/22 11:48:31;;;;;;;1.13;1.00;;;22.10;46.70;;;;;;6303561;22;20271;-68
2023/03/22 11:51:06;;;;;;;1.20;1.10;;;22.20;45.70;;;;;;6303829;22;20844;-68
2023/03/22 11:53:38;;;;;;;1.53;1.20;;;22.20;45.50;;;;;;6302838;22;20202;-69
2023/03/22 11:56:07;;;;;;;3.03;0.97;;;22.40;45.40;;;;;;6303488;22;20186;-67
2023/03/22 11:58:53;;;;;;;1.53;0.87;;;22.40;44.40;;;;;;6303696;22;20372;-69
2023/03/22 12:01:31;;;;;;;0.93;0.90;;;22.40;44.80;;;;;;6304057;22;20160;-69
2023/03/22 12:04:01;;;;;;;1.30;1.20;;;22.60;44.90;;;;;;6303278;22;20812;-68
2023/03/22 12:06:32;;;;;;;1.17;1.07;;;22.80;44.80;;;;;;6303737;22;20255;-69
2023/03/22 12:09:05;;;;;;;1.03;1.00;;;22.90;44.70;;;;;;6303749;22;20199;-69
2023/03/22 12:11:37;;;;;;;1.33;1.23;;;22.90;44.10;;;;;;6303326;22;20167;-69
2023/03/22 12:14:09;;;;;;;3.00;1.07;;;22.90;43.90;;;;;;6303346;22;20164;-69
2023/03/22 12:16:45;;;;;;;0.83;0.83;;;23.10;44.10;;;;;;6303576;22;20172;-69
2023/03/22 12:19:19;;;;;;;1.30;1.10;;;23.10;43.00;;;;;;6303445;22;20209;-69
2023/03/22 12:21:48;;;;;;;2.07;1.50;;;23.00;42.90;;;;;;6302662;22;20159;-70
2023/03/22 12:24:25;;;;;;;1.57;1.47;;;23.00;42.90;;;;;;6303101;22;20230;-69
2023/03/22 12:26:53;;;;;;;1.40;1.30;;;23.10;42.80;;;;;;6303785;22;20223;-70
2023/03/22 12:29:21;;;;;;;1.50;1.40;;;23.20;42.80;;;;;;6303335;22;20176;-68
2023/03/22 12:31:57;;;;;;;3.10;1.37;;;23.40;43.20;;;;;;6303640;22;20185;-70
2023/03/22 12:34:32;;;;;;;2.07;1.50;;;23.40;42.40;;;;;;6249666;22;20681;-69
2023/03/22 12:37:02;;;;;;;1.60;1.43;;;23.40;42.10;;;;;;6302749;22;20164;-69
2023/03/22 12:39:33;;;;;;;1.47;1.27;;;23.40;42.90;;;;;;6303303;22;20230;-69
2023/03/22 12:42:06;;;;;;;1.73;1.53;;;23.60;42.50;;;;;;6276507;22;20628;-70
2023/03/22 12:44:38;;;;;;;1.20;1.10;;;23.60;41.80;;;;;;6303354;22;20602;-68
2023/03/22 12:47:09;;;;;;;1.70;1.20;;;23.70;42.70;;;;;;6303232;22;20169;-69
2023/03/22 12:49:40;;;;;;;1.30;1.20;;;23.80;42.10;;;;;;6303088;22;20163;-68
2023/03/22 12:52:13;;;;;;;2.60;1.40;;;23.90;42.40;;;;;;6302525;22;20172;-69
2023/03/22 12:54:42;;;;;;;1.40;1.27;;;24.10;41.80;;;;;;6303744;22;20539;-70
2023/03/22 12:57:10;;;;;;;2.13;1.63;;;24.00;41.60;;;;;;6302964;22;20199;-69
2023/03/22 12:59:37;;;;;;;2.10;1.30;;;24.10;41.70;;;;;;6303203;22;20221;-70
2023/03/22 13:02:15;;;;;;;2.47;1.30;;;24.10;40.90;;;;;;6304877;22;20256;-69
2023/03/22 13:04:54;;;;;;;1.37;1.20;;;24.20;41.10;;;;;;6305475;22;20231;-69